createdAt,value
2023-02-22T00:01:33.877Z,5.10
2023-02-22T00:04:00.638Z,5.45
2023-02-22T00:06:27.357Z,6.80
2023-02-22T00:08:55.742Z,6.40
2023-02-22T00:11:22.261Z,5.65
2023-02-22T00:13:50.595Z,6.35
2023-02-22T00:16:19.996Z,5.65
2023-02-22T00:18:46.898Z,5.18
2023-02-22T00:21:14.859Z,5.47
2023-02-22T00:23:46.636Z,5.22
2023-02-22T00:26:18.218Z,5.75
2023-02-22T00:28:51.007Z,5.15
2023-02-22T00:31:18.760Z,5.05
2023-02-22T00:33:46.605Z,4.85
2023-02-22T00:36:14.158Z,5.25
2023-02-22T00:38:41.945Z,5.18
2023-02-22T00:41:08.649Z,6.00
2023-02-22T00:43:35.398Z,5.72
2023-02-22T00:46:01.940Z,4.75
2023-02-22T00:48:29.210Z,4.75
2023-02-22T00:50:55.844Z,5.40
2023-02-22T00:53:27.344Z,5.40
2023-02-22T00:55:54.314Z,6.18
2023-02-22T00:58:21.523Z,5.18
2023-02-22T01:00:48.678Z,5.30
2023-02-22T01:03:18.517Z,4.93
2023-02-22T01:05:47.813Z,4.85
2023-02-22T01:08:16.140Z,6.70
2023-02-22T01:10:42.993Z,6.18
2023-02-22T01:13:12.243Z,6.25
2023-02-22T01:15:41.487Z,5.25
2023-02-22T01:18:08.764Z,4.85
2023-02-22T01:20:35.390Z,4.90
2023-02-22T01:23:03.689Z,5.95
2023-02-22T01:25:31.489Z,5.15
2023-02-22T01:28:00.165Z,5.50
2023-02-22T01:30:29.695Z,5.50
2023-02-22T01:32:56.797Z,5.70
2023-02-22T01:35:27.970Z,4.40
2023-02-22T01:37:55.349Z,5.28
2023-02-22T01:40:26.442Z,5.60
2023-02-22T01:42:57.782Z,4.80
2023-02-22T01:45:30.610Z,3.75
2023-02-22T01:48:01.490Z,5.25
2023-02-22T01:50:28.433Z,5.75
2023-02-22T01:52:55.358Z,5.32
2023-02-22T01:55:22.043Z,4.70
2023-02-22T01:57:49.255Z,6.38
2023-02-22T02:00:21.106Z,4.93
2023-02-22T02:02:59.131Z,4.82
2023-02-22T02:05:27.323Z,5.75
2023-02-22T02:07:54.230Z,5.90
2023-02-22T02:10:21.635Z,6.00
2023-02-22T02:12:50.701Z,5.25
2023-02-22T02:15:31.261Z,5.30
2023-02-22T02:18:04.110Z,5.35
2023-02-22T02:20:49.360Z,5.32
2023-02-22T02:23:34.428Z,4.45
2023-02-22T02:26:09.689Z,4.45
2023-02-22T02:28:48.195Z,5.82
2023-02-22T02:31:32.993Z,4.80
2023-02-22T02:34:04.626Z,4.35
2023-02-22T02:37:01.169Z,4.28
2023-02-22T02:39:30.349Z,4.13
2023-02-22T02:41:58.176Z,4.78
2023-02-22T02:44:29.604Z,5.20
2023-02-22T02:46:59.355Z,5.72
2023-02-22T02:49:30.674Z,4.70
2023-02-22T02:51:57.931Z,7.22
2023-02-22T02:54:24.957Z,5.90
2023-02-22T02:56:51.522Z,4.25
2023-02-22T02:59:26.267Z,4.57
2023-02-22T03:02:30.575Z,5.55
2023-02-22T03:05:07.660Z,5.07
2023-02-22T03:07:53.648Z,4.03
2023-02-22T03:10:37.956Z,5.15
2023-02-22T03:13:20.031Z,5.68
2023-02-22T03:15:57.124Z,4.90
2023-02-22T03:19:00.916Z,5.10
2023-02-22T03:21:33.680Z,3.60
2023-02-22T03:24:12.276Z,4.60
2023-02-22T03:27:02.898Z,4.53
2023-02-22T03:29:35.543Z,4.38
2023-02-22T03:32:05.974Z,4.70
2023-02-22T03:34:36.911Z,4.63
2023-02-22T03:37:06.663Z,4.50
2023-02-22T03:39:35.934Z,5.55
2023-02-22T03:42:07.836Z,5.18
2023-02-22T03:47:08.706Z,4.22
2023-02-22T03:49:57.126Z,5.18
2023-02-22T03:52:24.027Z,4.90
2023-02-22T03:54:54.966Z,4.60
2023-02-22T03:57:34.228Z,3.70
2023-02-22T04:00:01.092Z,5.00
2023-02-22T04:02:27.668Z,4.53
2023-02-22T04:04:54.295Z,3.47
2023-02-22T04:07:20.935Z,5.07
2023-02-22T04:09:47.527Z,4.60
2023-02-22T04:12:16.729Z,5.35
2023-02-22T04:14:43.322Z,5.13
2023-02-22T04:17:10.329Z,4.70
2023-02-22T04:19:36.929Z,4.20
2023-02-22T04:22:03.478Z,4.75
2023-02-22T04:24:30.690Z,5.15
2023-02-22T04:26:57.320Z,4.50
2023-02-22T04:29:23.871Z,4.38
2023-02-22T04:31:50.489Z,4.70
2023-02-22T04:34:17.088Z,4.82
2023-02-22T04:36:44.753Z,4.68
2023-02-22T04:39:11.507Z,3.80
2023-02-22T04:41:38.117Z,4.30
2023-02-22T04:44:05.003Z,4.82
2023-02-22T04:46:31.675Z,4.13
2023-02-22T04:48:58.833Z,4.35
2023-02-22T04:51:25.826Z,5.13
2023-02-22T04:53:52.394Z,4.90
2023-02-22T04:56:19.505Z,3.50
2023-02-22T04:58:46.076Z,4.60
2023-02-22T05:01:12.650Z,3.75
2023-02-22T05:03:39.218Z,4.20
2023-02-22T05:06:06.427Z,3.92
2023-02-22T05:08:32.996Z,4.68
2023-02-22T05:11:00.156Z,4.30
2023-02-22T05:13:26.893Z,4.72
2023-02-22T05:15:54.483Z,4.07
2023-02-22T05:18:21.133Z,3.90
2023-02-22T05:20:47.716Z,3.75
2023-02-22T05:23:14.343Z,4.00
2023-02-22T05:25:41.108Z,3.97
2023-02-22T05:28:15.499Z,3.67
2023-02-22T05:30:42.227Z,3.30
2023-02-22T05:33:09.688Z,3.40
2023-02-22T05:35:37.211Z,3.72
2023-02-22T05:38:04.685Z,4.10
2023-02-22T05:40:31.670Z,3.33
2023-02-22T05:42:58.958Z,3.20
2023-02-22T05:45:27.029Z,3.97
2023-02-22T05:47:54.503Z,3.58
2023-02-22T05:50:21.515Z,4.28
2023-02-22T05:52:48.872Z,3.83
2023-02-22T05:55:18.057Z,3.20
2023-02-22T05:57:44.688Z,3.75
2023-02-22T06:00:15.197Z,4.05
2023-02-22T06:02:41.785Z,4.63
2023-02-22T06:05:08.638Z,3.83
2023-02-22T06:07:35.339Z,4.53
2023-02-22T06:10:01.967Z,4.20
2023-02-22T06:12:28.541Z,3.75
2023-02-22T06:14:55.146Z,3.50
2023-02-22T06:17:21.696Z,3.90
2023-02-22T06:19:48.257Z,4.35
2023-02-22T06:22:19.431Z,3.78
2023-02-22T06:24:45.997Z,3.63
2023-02-22T06:27:12.637Z,3.47
2023-02-22T06:29:39.247Z,3.60
2023-02-22T06:32:05.835Z,3.55
2023-02-22T06:34:32.440Z,3.92
2023-02-22T06:37:00.045Z,3.70
2023-02-22T06:39:26.801Z,4.30
2023-02-22T06:41:55.248Z,4.38
2023-02-22T06:44:23.107Z,4.10
2023-02-22T06:46:51.242Z,4.13
2023-02-22T06:49:19.177Z,3.80
2023-02-22T06:51:46.112Z,3.35
2023-02-22T06:54:12.945Z,4.13
2023-02-22T06:56:39.499Z,3.30
2023-02-22T06:59:06.031Z,5.32
2023-02-22T07:01:32.634Z,5.70
2023-02-22T07:03:59.232Z,4.97
2023-02-22T07:06:25.846Z,5.07
2023-02-22T07:08:52.437Z,6.65
2023-02-22T07:11:19.323Z,6.63
2023-02-22T07:13:46.116Z,6.63
2023-02-22T07:16:12.660Z,6.05
2023-02-22T07:18:39.233Z,6.85
2023-02-22T07:21:06.082Z,6.00
2023-02-22T07:23:32.599Z,6.22
2023-02-22T07:26:03.347Z,6.75
2023-02-22T07:28:30.057Z,6.53
2023-02-22T07:30:56.739Z,6.32
2023-02-22T07:33:23.338Z,7.07
2023-02-22T07:35:51.051Z,6.15
2023-02-22T07:38:19.716Z,5.70
2023-02-22T07:40:46.440Z,6.75
2023-02-22T07:43:23.796Z,5.97
2023-02-22T07:45:53.492Z,6.75
2023-02-22T07:48:21.513Z,5.22
2023-02-22T07:50:48.811Z,5.70
2023-02-22T07:53:24.424Z,6.15
2023-02-22T07:55:51.952Z,10.30
2023-02-22T07:58:21.576Z,7.72
2023-02-22T08:00:48.539Z,5.10
2023-02-22T08:03:16.602Z,7.22
2023-02-22T08:05:46.630Z,5.05
2023-02-22T08:08:14.702Z,5.20
2023-02-22T08:10:41.234Z,5.57
2023-02-22T08:13:08.741Z,5.13
2023-02-22T08:15:37.595Z,5.85
2023-02-22T08:18:09.124Z,5.70
2023-02-22T08:20:37.031Z,5.88
2023-02-22T08:23:04.920Z,6.95
2023-02-22T08:25:31.606Z,4.95
2023-02-22T08:28:01.340Z,5.30
2023-02-22T08:30:30.132Z,5.05
2023-02-22T08:32:58.379Z,5.70
2023-02-22T08:35:25.490Z,4.28
2023-02-22T08:37:54.887Z,3.85
2023-02-22T08:40:23.630Z,4.43
2023-02-22T08:42:50.248Z,4.07
2023-02-22T08:45:17.333Z,3.20
2023-02-22T08:47:44.392Z,3.58
2023-02-22T08:50:16.938Z,4.72
2023-02-22T08:52:43.514Z,4.55
2023-02-22T08:55:10.137Z,3.67
2023-02-22T08:57:36.681Z,4.82
2023-02-22T09:00:05.078Z,3.40
2023-02-22T09:02:32.708Z,4.15
2023-02-22T09:04:59.309Z,3.20
2023-02-22T09:07:25.911Z,4.38
2023-02-22T09:09:52.548Z,4.07
2023-02-22T09:12:19.093Z,3.03
2023-02-22T09:14:45.640Z,3.35
2023-02-22T09:17:13.259Z,4.55
2023-02-22T09:19:39.819Z,3.13
2023-02-22T09:22:06.438Z,3.65
2023-02-22T09:24:33.023Z,3.45
2023-02-22T09:26:59.904Z,3.03
2023-02-22T09:29:27.694Z,3.28
2023-02-22T09:31:56.078Z,3.13
2023-02-22T09:34:30.004Z,3.00
2023-02-22T09:36:58.247Z,3.28
2023-02-22T09:39:24.908Z,4.20
2023-02-22T09:42:14.328Z,2.85
2023-02-22T09:44:40.797Z,2.40
2023-02-22T09:47:14.736Z,3.05
2023-02-22T09:49:47.396Z,2.20
2023-02-22T09:52:29.016Z,2.42
2023-02-22T09:55:08.413Z,2.40
2023-02-22T09:57:41.000Z,3.20
2023-02-22T10:00:21.966Z,2.95
2023-02-22T10:03:25.632Z,2.37
2023-02-22T10:06:05.386Z,2.40
2023-02-22T10:08:34.052Z,2.50
2023-02-22T10:11:23.622Z,2.33
2023-02-22T10:13:59.093Z,2.63
2023-02-22T10:16:38.613Z,2.95
2023-02-22T10:19:11.290Z,2.47
2023-02-22T10:21:55.347Z,2.75
2023-02-22T10:24:40.270Z,2.33
2023-02-22T10:27:09.189Z,2.60
2023-02-22T10:29:40.732Z,2.53
2023-02-22T10:32:12.436Z,3.13
2023-02-22T10:37:22.943Z,3.60
2023-02-22T10:39:53.036Z,4.22
2023-02-22T10:42:22.863Z,3.90
2023-02-22T10:44:49.410Z,4.60
2023-02-22T10:47:18.302Z,4.93
2023-02-22T10:49:55.771Z,5.18
2023-02-22T10:52:29.387Z,3.90
2023-02-22T10:55:13.800Z,4.05
2023-02-22T10:57:42.422Z,4.75
2023-02-22T11:00:29.578Z,4.38
2023-02-22T11:02:58.359Z,6.07
2023-02-22T11:05:40.046Z,3.33
2023-02-22T11:08:21.609Z,3.67
2023-02-22T11:10:53.873Z,3.30
2023-02-22T11:13:33.609Z,3.90
2023-02-22T11:16:21.099Z,5.40
2023-02-22T11:18:48.151Z,3.90
2023-02-22T11:21:22.740Z,4.10
2023-02-22T11:23:50.390Z,4.68
2023-02-22T11:26:20.406Z,4.25
2023-02-22T11:28:56.130Z,4.18
2023-02-22T11:31:28.443Z,3.88
2023-02-22T11:34:00.612Z,4.40
2023-02-22T11:36:33.432Z,3.50
2023-02-22T11:39:00.991Z,3.67
2023-02-22T11:41:34.135Z,2.92
2023-02-22T11:44:35.170Z,2.92
2023-02-22T11:47:06.948Z,2.92
2023-02-22T11:52:13.567Z,4.20
2023-02-22T11:54:55.374Z,3.03
2023-02-22T11:57:46.650Z,3.25
2023-02-22T12:00:33.724Z,3.00
2023-02-22T12:03:22.030Z,5.82
2023-02-22T12:06:42.662Z,2.80
2023-02-22T12:09:18.752Z,4.05
2023-02-22T12:12:08.131Z,2.47
2023-02-22T12:14:44.137Z,2.95
2023-02-22T12:17:35.077Z,2.88
2023-02-22T12:20:13.409Z,3.70
2023-02-22T12:22:47.871Z,3.30
2023-02-22T12:25:25.407Z,2.50
2023-02-22T12:28:29.202Z,2.47
2023-02-22T12:31:18.760Z,3.80
2023-02-22T12:34:12.158Z,3.42
2023-02-22T12:36:46.714Z,3.10
2023-02-22T12:39:53.780Z,2.67
2023-02-22T12:42:43.390Z,5.20
2023-02-22T12:45:16.983Z,4.13
2023-02-22T12:47:49.861Z,3.63
2023-02-22T12:50:25.025Z,3.53
2023-02-22T12:53:20.342Z,3.00
2023-02-22T12:55:55.097Z,4.63
2023-02-22T12:58:45.990Z,5.63
2023-02-22T13:01:22.686Z,5.28
2023-02-22T13:03:49.414Z,7.07
2023-02-22T13:06:37.947Z,4.80
2023-02-22T13:09:13.580Z,5.47
2023-02-22T13:12:01.374Z,6.03
2023-02-22T13:14:52.081Z,4.68
2023-02-22T13:17:21.668Z,3.60
2023-02-22T13:20:02.847Z,5.13
2023-02-22T13:22:35.371Z,3.63
2023-02-22T13:25:17.566Z,3.53
2023-02-22T13:27:48.787Z,5.07
2023-02-22T13:30:30.650Z,4.20
2023-02-22T13:33:07.914Z,4.38
2023-02-22T13:35:56.459Z,5.43
2023-02-22T13:38:51.970Z,3.65
2023-02-22T13:41:21.327Z,5.07
2023-02-22T13:44:04.646Z,3.45
2023-02-22T13:46:55.612Z,3.33
2023-02-22T13:50:00.022Z,4.60
2023-02-22T13:52:29.622Z,3.85
2023-02-22T13:55:00.621Z,6.13
2023-02-22T13:57:28.627Z,4.50
2023-02-22T14:00:21.107Z,3.90
2023-02-22T14:03:13.539Z,3.08
2023-02-22T14:05:42.771Z,5.40
2023-02-22T14:08:25.510Z,3.80
2023-02-22T14:10:55.159Z,4.43
2023-02-22T14:13:30.223Z,4.20
2023-02-22T14:16:02.886Z,4.60
2023-02-22T14:18:31.645Z,4.75
2023-02-22T14:21:13.019Z,4.03
2023-02-22T14:23:45.876Z,4.28
2023-02-22T14:26:26.143Z,3.08
2023-02-22T14:28:59.330Z,3.80
2023-02-22T14:31:36.451Z,3.45
2023-02-22T14:34:32.406Z,4.05
2023-02-22T14:37:07.737Z,3.83
2023-02-22T14:39:50.176Z,4.18
2023-02-22T14:42:19.945Z,4.78
2023-02-22T14:44:55.619Z,4.03
2023-02-22T14:47:29.573Z,3.38
2023-02-22T14:50:08.637Z,4.88
2023-02-22T14:52:37.876Z,4.30
2023-02-22T14:55:26.244Z,5.93
2023-02-22T14:58:02.481Z,3.75
2023-02-22T15:00:42.061Z,4.43
2023-02-22T15:03:24.077Z,4.72
2023-02-22T15:05:50.600Z,6.45
2023-02-22T15:08:18.758Z,5.55
2023-02-22T15:10:47.601Z,7.68
2023-02-22T15:13:20.604Z,7.47
2023-02-22T15:15:56.420Z,5.32
2023-02-22T15:18:30.237Z,4.55
2023-02-22T15:21:08.294Z,4.55
2023-02-22T15:23:42.613Z,4.05
2023-02-22T15:26:17.553Z,5.75
2023-02-22T15:28:45.413Z,4.78
2023-02-22T15:31:44.734Z,3.97
2023-02-22T15:34:12.312Z,4.65
2023-02-22T15:36:39.050Z,5.55
2023-02-22T15:39:08.918Z,4.47
2023-02-22T15:41:36.172Z,5.45
2023-02-22T15:44:22.756Z,5.13
2023-02-22T15:46:50.204Z,5.95
2023-02-22T15:49:16.717Z,4.63
2023-02-22T15:51:46.533Z,5.65
2023-02-22T15:54:26.461Z,5.88
2023-02-22T15:56:56.396Z,6.43
2023-02-22T15:59:30.594Z,7.18
2023-02-22T16:01:58.350Z,6.13
2023-02-22T16:04:27.719Z,5.72
2023-02-22T16:07:03.835Z,5.75
2023-02-22T16:09:33.188Z,7.72
2023-02-22T16:12:20.878Z,4.85
2023-02-22T16:14:52.493Z,6.88
2023-02-22T16:17:31.235Z,5.95
2023-02-22T16:20:00.631Z,6.68
2023-02-22T16:22:35.680Z,8.55
2023-02-22T16:25:21.636Z,6.03
2023-02-22T16:27:50.474Z,8.43
2023-02-22T16:30:24.354Z,6.93
2023-02-22T16:32:53.569Z,8.10
2023-02-22T16:35:20.213Z,8.80
2023-02-22T16:37:51.995Z,7.15
2023-02-22T16:40:44.606Z,8.38
2023-02-22T16:43:15.979Z,8.07
2023-02-22T16:45:42.787Z,9.02
2023-02-22T16:48:17.497Z,7.72
2023-02-22T16:50:44.182Z,5.30
2023-02-22T16:53:10.934Z,5.18
2023-02-22T16:55:37.512Z,5.80
2023-02-22T16:58:04.744Z,6.35
2023-02-22T17:00:31.779Z,6.00
2023-02-22T17:02:59.640Z,4.53
2023-02-22T17:05:26.249Z,4.95
2023-02-22T17:07:52.902Z,3.80
2023-02-22T17:10:19.683Z,3.58
2023-02-22T17:12:47.492Z,4.55
2023-02-22T17:15:34.952Z,4.22
2023-02-22T17:18:07.003Z,4.30
2023-02-22T17:20:33.550Z,3.45
2023-02-22T17:23:02.113Z,3.80
2023-02-22T17:25:32.388Z,3.50
2023-02-22T17:27:59.073Z,5.38
2023-02-22T17:30:26.002Z,5.38
2023-02-22T17:32:53.150Z,4.70
2023-02-22T17:35:23.225Z,6.82
2023-02-22T17:37:50.621Z,4.72
2023-02-22T17:40:17.376Z,5.30
2023-02-22T17:42:45.682Z,7.80
2023-02-22T17:45:15.276Z,5.75
2023-02-22T17:47:43.464Z,6.78
2023-02-22T17:50:11.350Z,6.63
2023-02-22T17:52:39.392Z,7.97
2023-02-22T17:55:10.993Z,6.53
2023-02-22T17:57:39.811Z,4.93
2023-02-22T18:00:15.915Z,6.00
2023-02-22T18:02:43.873Z,10.20
2023-02-22T18:05:12.705Z,6.78
2023-02-22T18:07:39.291Z,6.38
2023-02-22T18:10:11.789Z,7.70
2023-02-22T18:12:39.742Z,8.55
2023-02-22T18:15:10.859Z,7.38
2023-02-22T18:17:38.059Z,8.03
2023-02-22T18:20:14.475Z,6.20
2023-02-22T18:22:43.829Z,9.38
2023-02-22T18:25:11.905Z,5.75
2023-02-22T18:27:38.735Z,6.45
2023-02-22T18:30:06.420Z,7.35
2023-02-22T18:32:33.591Z,5.40
2023-02-22T18:35:00.424Z,8.00
2023-02-22T18:37:29.974Z,4.78
2023-02-22T18:39:57.563Z,5.90
2023-02-22T18:42:25.937Z,6.43
2023-02-22T18:44:54.407Z,7.43
2023-02-22T18:47:22.871Z,5.85
2023-02-22T18:49:49.607Z,5.93
2023-02-22T18:52:16.367Z,4.88
2023-02-22T18:54:43.762Z,6.45
2023-02-22T18:57:14.126Z,7.38
2023-02-22T18:59:44.281Z,4.97
2023-02-22T19:02:20.555Z,4.35
2023-02-22T19:04:47.878Z,4.25
2023-02-22T19:07:22.672Z,5.03
2023-02-22T19:09:51.294Z,5.03
2023-02-22T19:12:19.175Z,5.05
2023-02-22T19:14:47.333Z,7.25
2023-02-22T19:17:17.656Z,4.90
2023-02-22T19:19:44.362Z,4.88
2023-02-22T19:22:16.627Z,4.32
2023-02-22T19:24:43.976Z,4.85
2023-02-22T19:27:15.033Z,4.30
2023-02-22T19:29:41.626Z,4.37
2023-02-22T19:32:09.810Z,4.85
2023-02-22T19:34:37.254Z,5.00
2023-02-22T19:37:05.448Z,5.97
2023-02-22T19:39:34.395Z,8.63
2023-02-22T19:42:01.134Z,4.88
2023-02-22T19:44:28.095Z,5.57
2023-02-22T19:46:57.462Z,6.00
2023-02-22T19:54:24.784Z,5.45
2023-02-22T19:56:51.522Z,5.72
2023-02-22T19:59:22.880Z,6.03
2023-02-22T20:01:54.844Z,6.65
2023-02-22T20:06:54.594Z,7.20
2023-02-22T20:09:30.105Z,7.45
2023-02-22T20:11:57.170Z,7.13
2023-02-22T20:14:26.141Z,7.68
2023-02-22T20:16:53.832Z,7.43
2023-02-22T20:19:22.506Z,7.03
2023-02-22T20:21:50.076Z,7.97
2023-02-22T20:24:18.418Z,8.20
2023-02-22T20:26:47.167Z,7.85
2023-02-22T20:29:14.366Z,8.65
2023-02-22T20:31:43.088Z,7.53
2023-02-22T20:34:11.452Z,8.80
2023-02-22T20:36:40.002Z,7.22
2023-02-22T20:39:07.735Z,7.20
2023-02-22T20:41:35.699Z,7.10
2023-02-22T20:44:03.247Z,7.78
2023-02-22T20:46:35.653Z,7.28
2023-02-22T20:49:03.816Z,8.90
2023-02-22T20:51:30.664Z,8.45
2023-02-22T20:53:59.916Z,8.23
2023-02-22T20:56:27.765Z,7.40
2023-02-22T20:58:56.690Z,7.75
2023-02-22T21:01:23.579Z,7.10
2023-02-22T21:03:50.547Z,8.55
2023-02-22T21:06:19.559Z,7.43
2023-02-22T21:08:50.438Z,6.57
2023-02-22T21:11:18.334Z,8.20
2023-02-22T21:13:45.242Z,8.40
2023-02-22T21:16:23.965Z,8.02
2023-02-22T21:18:55.587Z,6.35
2023-02-22T21:21:22.801Z,6.70
2023-02-22T21:23:51.481Z,7.30
2023-02-22T21:26:23.508Z,6.40
2023-02-22T21:31:20.630Z,9.98
2023-02-22T21:33:50.498Z,7.97
2023-02-22T21:36:17.521Z,8.05
2023-02-22T21:38:45.994Z,9.23
2023-02-22T21:41:16.930Z,7.15
2023-02-22T21:43:49.164Z,7.63
2023-02-22T21:46:15.778Z,8.20
2023-02-22T21:48:45.217Z,8.85
2023-02-22T21:51:14.040Z,6.20
2023-02-22T21:53:48.669Z,6.97
2023-02-22T21:56:19.001Z,7.07
2023-02-22T21:58:47.067Z,7.22
2023-02-22T22:01:17.330Z,7.20
2023-02-22T22:03:45.855Z,6.97
2023-02-22T22:06:13.713Z,9.02
2023-02-22T22:08:41.608Z,7.72
2023-02-22T22:11:09.693Z,7.05
2023-02-22T22:13:38.049Z,8.13
2023-02-22T22:16:10.661Z,7.90
2023-02-22T22:18:38.529Z,6.68
2023-02-22T22:21:10.758Z,8.15
2023-02-22T22:23:41.374Z,6.90
2023-02-22T22:26:11.607Z,7.50
2023-02-22T22:28:43.141Z,6.53
2023-02-22T22:31:11.006Z,8.52
2023-02-22T22:33:37.859Z,7.15
2023-02-22T22:36:05.981Z,7.53
2023-02-22T22:38:33.522Z,7.63
2023-02-22T22:41:01.573Z,6.47
2023-02-22T22:43:29.148Z,6.88
2023-02-22T22:45:57.916Z,5.93
2023-02-22T22:48:25.133Z,6.28
2023-02-22T22:51:02.549Z,6.15
2023-02-22T22:53:31.135Z,6.40
2023-02-22T22:56:05.934Z,5.53
2023-02-22T22:58:36.316Z,5.65
2023-02-22T23:01:05.972Z,5.13
2023-02-22T23:03:38.652Z,6.95
2023-02-22T23:06:05.743Z,6.63
2023-02-22T23:08:43.117Z,7.13
2023-02-22T23:11:12.933Z,7.35
2023-02-22T23:13:39.885Z,7.10
2023-02-22T23:16:12.095Z,6.32
2023-02-22T23:18:43.084Z,6.10
2023-02-22T23:21:10.918Z,7.15
2023-02-22T23:23:38.087Z,5.75
2023-02-22T23:26:11.622Z,5.22
2023-02-22T23:28:39.890Z,6.75
2023-02-22T23:31:10.652Z,6.35
2023-02-22T23:33:38.290Z,6.70
2023-02-22T23:36:06.052Z,6.75
2023-02-22T23:38:34.782Z,6.03
2023-02-22T23:41:04.407Z,7.35
2023-02-22T23:43:32.721Z,5.78
2023-02-22T23:46:06.090Z,6.65
2023-02-22T23:48:32.786Z,7.25
2023-02-22T23:50:59.308Z,7.97
2023-02-22T23:53:26.581Z,6.78
2023-02-22T23:55:53.170Z,8.63
2023-02-22T23:58:23.084Z,6.80
